This is the latest recevied weather packets stored in our database for station/object N7ZAP. If no packets are shown the sender has not sent any weather packets the latest 10 day(s).
| Time | Temp. | Humidity | Pressure | Rain* | Wind** | Luminosity | Snow |
|---|---|---|---|---|---|---|---|
| 1777654410 | 14.44° C | 48% | 1018.3 hPa | 0 mm | - | - | - |
| 1777654107 | 14.44° C | 49% | 1018.7 hPa | 0 mm | - | - | - |
| 1777653806 | 13.89° C | 50% | 1018.5 hPa | 0 mm | - | - | - |
| 1777653500 | 13.89° C | 51% | 1018.3 hPa | 0 mm | - | - | - |
| 1777653198 | 13.89° C | 50% | 1018.2 hPa | 0 mm | - | - | - |
| 1777652895 | 13.89° C | 52% | 1018.4 hPa | 0 mm | - | - | - |
| 1777652591 | 13.33° C | 55% | 1018.2 hPa | 0 mm | - | - | - |
| 1777652288 | 13.33° C | 54% | 1018.1 hPa | 0 mm | - | - | - |
| 1777651985 | 13.89° C | 53% | 1018.1 hPa | 0 mm | - | - | - |
| 1777651681 | 13.89° C | 53% | 1018.3 hPa | 0 mm | - | - | - |
| 1777651378 | 13.89° C | 54% | 1018.3 hPa | 0 mm | - | - | - |
| 1777651076 | 13.89° C | 52% | 1018 hPa | 0 mm | - | - | - |
| 1777650772 | 14.44° C | 52% | 1018 hPa | 0 mm | - | - | - |
| 1777650469 | 14.44° C | 51% | 1017.8 hPa | 0 mm | - | - | - |
| 1777650166 | 13.89° C | 53% | 1018 hPa | 0 mm | - | - | - |
| 1777649864 | 12.78° C | 55% | 1017.7 hPa | 0 mm | - | - | - |
| 1777649561 | 12.22° C | 57% | 1017.7 hPa | 0 mm | - | - | - |
| 1777649257 | 11.67° C | 57% | 1017.8 hPa | 0 mm | - | - | - |
| 1777648954 | 11.67° C | 58% | 1017.7 hPa | 0 mm | - | - | - |
| 1777648651 | 11.67° C | 58% | 1017.7 hPa | 0 mm | - | - | - |
| 1777648348 | 11.67° C | 58% | 1017.7 hPa | 0 mm | - | - | - |
| 1777648044 | 11.67° C | 59% | 1017.8 hPa | 0 mm | - | - | - |
| 1777647740 | 11.67° C | 58% | 1017.6 hPa | 0 mm | - | - | - |
| 1777647437 | 11.67° C | 59% | 1017.5 hPa | 0 mm | - | - | - |
| 1777647135 | 11.67° C | 59% | 1017.4 hPa | 0 mm | - | - | - |
* Rain latest hour (hover to see other rain measurements)
** Current wind speed in m/s (hover to see current wind gust speed)